Boeing 747 de UPS se desliza fuera de la calle de rodaje

Telegram

El lunes 15 de febrero, un Boeing 747-400 con matrícula N575UP de la aerolínea carguera UPS se deslizó hasta que el tren de nariz salió de la calle de rodaje. Esto mientras circulaba hacia la pista en el Aeropuerto Internacional Louisville en Kentucky, Estados Unidos.

From the Cockpit

El Boeing 747 pretendía realizar el vuelo 5X-1540 de Lousville, Kentucky a la Base de la Fuerza Aérea McGuire en Nueva Jersey. Mientras rodaba hacia la pista en la calle “B” hacia la pista 35L, recibió la instrucción “Posición y mantener”. Esta indicación por parte del ATC autoriza a las aeronaves para ingresar a la pista con la intención de despegar. Sin embargo, a las 18:22LT (23:22Z) el avión derrapó, y sufrió una excursión de calle de rodaje. La tripulación informó del suceso indicando que una parte del ala se encontraba sobre la pista, por lo que la pista fue cerrada.

Las ruedas del tren de nariz salieron de la calle de rodaje. Sin embargo, la aeronave no sufrió ningún daño y fue remolcada nuevamente hacia su posición de rodaje. Este vuelo despegó hasta el día siguiente. Cabe mencionar que la superficie se encontraba resbaladiza a causa de la nieve y frío que ha acontecido en los últimos días. De acuerdo con avherald, los reportes meteorológicos indicaron presencia de lluvia engelante y nieve al momento del incidente. Estos reportes fueron:

KSDF 152323Z 04009KT 1 1/2SM –FZRASN BR OVC012 M05/M07 A2977 RMK AO2 FZRAB16SNE16B22 P0000 I1000 T10501067

KSDF 152316Z 03009KT 1 1/2SM –FZRA BR OVC012 M05/M07 A2978 RMK AO2 FZRAB16SNE16 PRESFR P0000 I1000 T10501067

From the Cockpit

RELACIONADO
Todo listo para la construcción de la nueva generación de los “Air Force One”

Actualmente, el norte del continente americano atraviesa por una tormenta invernal que ha provocado bloqueos, apagones y cancelaciones de vuelos. Asimismo, ha activado alertas en distintos estados sobre frío severo y caída de nieve intensa. En algunos lugares se han registrado récords históricos como en Omaha, Nebraska donde se reportó una temperatura mínima de -29,4°C, el día más frío en 25 años.

Foto: airlive.net

  • author's avatar

    Por: Uri Luna

    Ing. en Aeronáutica y Piloto Comercial, apasionado por los aviones y el espacio exterior. En sus ratos libres es un entusiasta de la natación, los viajes y la comida.

  • author's avatar

Deja tu comentario.

También te podría gustar...